Time;durP1;ratioP1;P1;durP2;ratioP2;P2;SDS_P1;SDS_P2;PMS_P1;PMS_P2;Temp;Humidity;BMP_temperature;BMP_pressure;BME280_temperature;BME280_humidity;BME280_pressure;Samples;Min_cycle;Max_cycle;Signal;HPM_P1;HPM_P2
2021/06/23 00:01:04;;;;;;;29.70;22.77;;;14.40;99.90;;;;;;5021133;28;20191;-65
2021/06/23 00:03:30;;;;;;;26.43;22.03;;;14.40;99.90;;;;;;5013607;28;20208;-65
2021/06/23 00:05:56;;;;;;;27.63;22.53;;;14.40;99.90;;;;;;4997596;28;20184;-65
2021/06/23 00:08:22;;;;;;;30.17;23.30;;;14.30;99.90;;;;;;5029628;28;20199;-65
2021/06/23 00:10:49;;;;;;;31.10;23.07;;;14.40;99.90;;;;;;5016591;28;20215;-65
2021/06/23 00:13:15;;;;;;;25.23;20.47;;;14.40;99.90;;;;;;5011742;28;20251;-65
2021/06/23 00:15:41;;;;;;;25.90;22.40;;;14.40;99.90;;;;;;5024410;28;20287;-65
2021/06/23 00:18:07;;;;;;;27.03;20.80;;;14.40;99.90;;;;;;5031749;28;20269;-66
2021/06/23 00:20:33;;;;;;;31.27;21.57;;;14.30;99.90;;;;;;5019934;28;20185;-65
2021/06/23 00:22:59;;;;;;;30.47;21.00;;;14.40;99.90;;;;;;5011962;28;20200;-65
2021/06/23 00:25:25;;;;;;;28.80;21.47;;;14.40;99.90;;;;;;5020998;28;20219;-65
2021/06/23 00:27:50;;;;;;;26.60;22.20;;;14.40;99.90;;;;;;5031568;28;20581;-65
2021/06/23 00:30:17;;;;;;;30.67;22.50;;;14.40;99.90;;;;;;5023272;28;20184;-65
2021/06/23 00:32:44;;;;;;;28.13;21.80;;;14.30;99.90;;;;;;4997402;28;20270;-65
2021/06/23 00:35:10;;;;;;;24.73;19.40;;;14.30;99.90;;;;;;5021763;28;20199;-65
2021/06/23 00:37:36;;;;;;;26.03;20.53;;;14.30;99.90;;;;;;5035262;28;20258;-65
2021/06/23 00:40:03;;;;;;;24.63;20.93;;;14.30;99.90;;;;;;5033085;28;20210;-66
2021/06/23 00:42:29;;;;;;;23.53;19.23;;;14.30;99.90;;;;;;5035129;28;20171;-65
2021/06/23 00:44:54;;;;;;;22.63;19.30;;;14.30;99.90;;;;;;5029213;28;20637;-65
2021/06/23 00:47:24;;;;;;;24.97;20.17;;;14.20;99.90;;;;;;5015182;28;20199;-65
2021/06/23 00:49:50;;;;;;;20.27;18.10;;;14.20;99.90;;;;;;5018791;28;21026;-64
2021/06/23 00:52:16;;;;;;;21.77;19.30;;;14.20;99.90;;;;;;5034810;28;20210;-65
2021/06/23 00:54:51;;;;;;;21.57;19.27;;;14.20;99.90;;;;;;5032088;28;20278;-65
2021/06/23 00:57:18;;;;;;;23.70;18.57;;;14.20;99.90;;;;;;5015240;28;20175;-65
2021/06/23 00:59:45;;;;;;;23.97;19.47;;;14.20;99.90;;;;;;5017106;28;20187;-65
2021/06/23 01:02:12;;;;;;;22.03;19.10;;;14.10;99.90;;;;;;5034810;28;20672;-66
2021/06/23 01:04:39;;;;;;;22.00;18.60;;;14.20;99.90;;;;;;5033220;28;20198;-65
2021/06/23 01:07:05;;;;;;;20.60;18.40;;;14.20;99.90;;;;;;5015282;28;20639;-65
2021/06/23 01:09:30;;;;;;;25.30;19.43;;;14.20;99.90;;;;;;5015703;28;20187;-65
2021/06/23 01:12:14;;;;;;;22.07;19.77;;;14.10;99.90;;;;;;5014647;28;20235;-66
2021/06/23 01:14:42;;;;;;;21.07;18.80;;;14.10;99.90;;;;;;5024172;28;20199;-66
2021/06/23 01:17:09;;;;;;;21.33;18.37;;;14.00;99.90;;;;;;5034670;28;20255;-66
2021/06/23 01:19:41;;;;;;;21.57;17.93;;;14.10;99.90;;;;;;5025836;28;20259;-65
2021/06/23 01:22:06;;;;;;;20.93;18.80;;;14.10;99.90;;;;;;5014921;28;20594;-65
2021/06/23 01:24:32;;;;;;;19.23;17.53;;;14.00;99.90;;;;;;5022420;28;20199;-66
2021/06/23 01:26:58;;;;;;;21.43;19.20;;;14.00;99.90;;;;;;5034644;28;20180;-66
2021/06/23 01:29:23;;;;;;;20.80;18.60;;;14.00;99.90;;;;;;5028688;28;20259;-65
2021/06/23 01:31:49;;;;;;;20.53;18.37;;;14.00;99.90;;;;;;5013928;28;20218;-66
2021/06/23 01:34:16;;;;;;;20.93;18.57;;;14.00;99.90;;;;;;5018973;28;20199;-65
2021/06/23 01:36:42;;;;;;;20.53;18.53;;;14.00;99.90;;;;;;5034684;28;20266;-66
2021/06/23 01:39:07;;;;;;;20.87;17.13;;;14.00;99.90;;;;;;5014181;28;20184;-66
2021/06/23 01:41:33;;;;;;;19.47;17.57;;;14.00;99.90;;;;;;5014362;28;20267;-64
2021/06/23 01:44:01;;;;;;;20.20;18.00;;;14.10;99.90;;;;;;5015503;28;20330;-66
2021/06/23 01:46:27;;;;;;;23.00;18.33;;;14.10;99.90;;;;;;5034483;28;20175;-66
2021/06/23 01:48:55;;;;;;;20.47;18.13;;;14.00;99.90;;;;;;5034531;28;20176;-66
2021/06/23 01:51:21;;;;;;;20.80;17.67;;;14.00;99.90;;;;;;5033344;28;20215;-66
2021/06/23 01:53:47;;;;;;;18.97;16.97;;;14.00;99.90;;;;;;5029731;28;20204;-65
2021/06/23 01:56:12;;;;;;;22.37;19.50;;;14.00;99.90;;;;;;5015252;28;20177;-66
2021/06/23 01:58:40;;;;;;;21.73;17.20;;;14.10;99.90;;;;;;5017887;28;20183;-66
2021/06/23 02:01:23;;;;;;;20.60;17.93;;;14.10;99.90;;;;;;5025653;28;20176;-66
2021/06/23 02:03:54;;;;;;;18.23;16.33;;;14.00;99.90;;;;;;5018478;28;20210;-66
2021/06/23 02:06:38;;;;;;;20.37;18.03;;;14.00;99.90;;;;;;5015218;28;20195;-65
2021/06/23 02:09:24;;;;;;;19.33;17.23;;;14.00;99.90;;;;;;5015112;28;20246;-65
2021/06/23 02:12:00;;;;;;;20.87;18.67;;;14.00;99.90;;;;;;5018778;28;20203;-66
2021/06/23 02:14:40;;;;;;;20.37;17.53;;;14.10;99.90;;;;;;5034441;28;20657;-66
2021/06/23 02:17:09;;;;;;;20.03;18.03;;;14.10;99.90;;;;;;5028110;28;20278;-66
2021/06/23 02:19:52;;;;;;;20.77;17.83;;;14.00;99.90;;;;;;5014786;28;20255;-66
2021/06/23 02:22:23;;;;;;;22.17;18.00;;;14.00;99.90;;;;;;5021812;28;20183;-65
2021/06/23 02:24:53;;;;;;;21.87;18.07;;;14.00;99.90;;;;;;5016464;28;20230;-66
2021/06/23 02:27:19;;;;;;;20.23;18.13;;;14.00;99.90;;;;;;5032453;28;20252;-65
2021/06/23 02:29:46;;;;;;;20.57;17.40;;;14.00;99.90;;;;;;5033883;28;20668;-66
2021/06/23 02:32:16;;;;;;;19.77;17.77;;;14.10;99.90;;;;;;5028580;28;20208;-66
2021/06/23 02:34:42;;;;;;;21.23;18.53;;;14.10;99.90;;;;;;5012728;28;20685;-66
2021/06/23 02:37:10;;;;;;;20.17;18.07;;;14.00;99.90;;;;;;5012810;28;20176;-66
2021/06/23 02:39:37;;;;;;;20.77;18.57;;;14.00;99.90;;;;;;5012405;28;20168;-66
2021/06/23 02:42:03;;;;;;;21.47;18.70;;;14.10;99.90;;;;;;5012638;28;20191;-66
2021/06/23 02:44:29;;;;;;;20.30;18.20;;;14.10;99.90;;;;;;5012540;28;20199;-65
2021/06/23 02:46:55;;;;;;;21.03;18.40;;;14.10;99.90;;;;;;5012843;28;20613;-66
2021/06/23 02:49:21;;;;;;;19.87;17.77;;;14.10;99.90;;;;;;4994856;28;20242;-66
2021/06/23 02:51:48;;;;;;;19.93;17.83;;;14.10;99.90;;;;;;5012143;28;20554;-66
2021/06/23 02:54:14;;;;;;;21.33;19.03;;;14.10;99.90;;;;;;5011814;28;20215;-66
2021/06/23 02:56:41;;;;;;;19.97;18.07;;;14.10;99.90;;;;;;4992641;28;20212;-66
2021/06/23 02:59:08;;;;;;;23.43;18.50;;;14.10;99.90;;;;;;4992864;28;20577;-66
2021/06/23 03:01:33;;;;;;;20.43;18.33;;;14.10;99.90;;;;;;5012222;28;20210;-66
2021/06/23 03:03:59;;;;;;;20.40;18.20;;;14.20;99.90;;;;;;5012103;28;20227;-66
2021/06/23 03:06:25;;;;;;;21.37;17.83;;;14.10;99.90;;;;;;5012448;28;20207;-66
2021/06/23 03:08:51;;;;;;;17.93;16.07;;;14.00;99.90;;;;;;5011585;28;20187;-66
2021/06/23 03:11:16;;;;;;;20.97;18.20;;;13.90;99.90;;;;;;5012000;28;20204;-66
2021/06/23 03:13:42;;;;;;;21.27;18.07;;;14.00;99.90;;;;;;4998862;28;20204;-66
2021/06/23 03:16:08;;;;;;;20.67;18.57;;;14.00;99.90;;;;;;4992576;28;20256;-66
2021/06/23 03:18:33;;;;;;;19.37;17.40;;;14.10;99.90;;;;;;5003059;28;20187;-67
2021/06/23 03:21:02;;;;;;;19.87;17.77;;;14.00;99.90;;;;;;5011953;28;20176;-66
2021/06/23 03:23:28;;;;;;;20.13;17.83;;;14.00;99.90;;;;;;5002614;28;20200;-66
2021/06/23 03:25:54;;;;;;;23.17;18.57;;;13.90;99.90;;;;;;4992257;28;20181;-66
2021/06/23 03:28:20;;;;;;;19.47;17.47;;;14.00;99.90;;;;;;4992371;28;20311;-66
2021/06/23 03:30:46;;;;;;;23.37;18.70;;;14.00;99.90;;;;;;4992216;28;20188;-66
2021/06/23 03:33:12;;;;;;;19.60;16.60;;;13.90;99.90;;;;;;4997699;28;20172;-66
2021/06/23 03:35:38;;;;;;;20.73;18.37;;;14.00;99.90;;;;;;5011730;28;20172;-66
2021/06/23 03:38:04;;;;;;;22.30;19.53;;;13.90;99.90;;;;;;5007850;28;20664;-66
2021/06/23 03:40:29;;;;;;;19.23;17.23;;;13.90;99.90;;;;;;4992147;28;20176;-66
2021/06/23 03:42:55;;;;;;;21.23;19.07;;;13.90;99.90;;;;;;4992257;28;20185;-66
2021/06/23 03:45:21;;;;;;;20.47;18.20;;;13.90;99.90;;;;;;4992235;28;20584;-66
2021/06/23 03:47:47;;;;;;;20.73;17.77;;;13.90;99.90;;;;;;4992165;28;20259;-65
2021/06/23 03:50:15;;;;;;;21.10;18.53;;;13.90;99.90;;;;;;4992375;28;20184;-66
2021/06/23 03:52:41;;;;;;;20.80;17.00;;;14.00;99.90;;;;;;4974767;28;20214;-66
2021/06/23 03:55:09;;;;;;;21.17;18.23;;;14.00;99.90;;;;;;4992228;28;20209;-66
2021/06/23 03:57:35;;;;;;;20.37;18.00;;;14.00;99.90;;;;;;4991780;28;20173;-65
2021/06/23 04:00:02;;;;;;;23.60;18.23;;;14.00;99.90;;;;;;5008757;28;20716;-66
2021/06/23 04:02:28;;;;;;;20.37;18.33;;;14.00;99.90;;;;;;5011614;28;20199;-66
2021/06/23 04:04:53;;;;;;;22.60;18.43;;;14.10;99.90;;;;;;4996034;28;20212;-65
2021/06/23 04:07:19;;;;;;;20.27;17.73;;;14.10;99.90;;;;;;4994907;28;20184;-65
2021/06/23 04:09:44;;;;;;;19.60;17.50;;;14.10;99.90;;;;;;4977989;28;20685;-66
2021/06/23 04:12:11;;;;;;;19.33;17.30;;;14.10;99.90;;;;;;4995975;28;20205;-66
2021/06/23 04:14:37;;;;;;;19.03;17.13;;;14.00;99.90;;;;;;4995595;28;20224;-66
2021/06/23 04:17:04;;;;;;;20.93;16.93;;;14.00;99.90;;;;;;5002920;28;20176;-66
2021/06/23 04:19:30;;;;;;;20.60;18.17;;;14.00;99.90;;;;;;5015262;28;20254;-66
2021/06/23 04:21:55;;;;;;;19.37;17.53;;;14.10;99.90;;;;;;5014625;28;20219;-66
2021/06/23 04:24:22;;;;;;;20.23;17.83;;;14.10;99.90;;;;;;5015107;28;20192;-66
2021/06/23 04:26:47;;;;;;;22.60;19.03;;;14.20;99.90;;;;;;5011606;28;20176;-66
2021/06/23 04:29:13;;;;;;;20.27;18.03;;;14.20;99.90;;;;;;4995511;28;20173;-66
2021/06/23 04:31:40;;;;;;;21.80;18.43;;;14.30;99.90;;;;;;4977514;28;20197;-66
2021/06/23 04:34:06;;;;;;;21.23;17.33;;;14.30;99.90;;;;;;4995545;28;20239;-66
2021/06/23 04:36:31;;;;;;;20.87;18.30;;;14.30;99.90;;;;;;4995487;28;20181;-66
2021/06/23 04:38:57;;;;;;;22.20;19.10;;;14.40;99.90;;;;;;4995234;28;20185;-66
2021/06/23 04:41:23;;;;;;;21.93;18.83;;;14.40;99.90;;;;;;4995099;28;20646;-66
2021/06/23 04:43:48;;;;;;;19.07;17.20;;;14.50;99.90;;;;;;5012506;28;20681;-65
2021/06/23 04:46:14;;;;;;;20.17;17.23;;;14.50;99.90;;;;;;5014726;28;20226;-65
2021/06/23 04:48:40;;;;;;;21.67;18.43;;;14.50;99.90;;;;;;5013866;28;20186;-66
2021/06/23 04:51:05;;;;;;;18.80;16.90;;;14.50;99.90;;;;;;5014433;28;20234;-66
2021/06/23 04:53:31;;;;;;;17.77;15.97;;;14.50;99.90;;;;;;5014356;28;20255;-66
2021/06/23 04:55:58;;;;;;;20.97;17.33;;;14.50;99.90;;;;;;5015643;28;20165;-66
2021/06/23 04:58:24;;;;;;;20.93;17.03;;;14.50;99.90;;;;;;5003582;28;20181;-66
2021/06/23 05:00:50;;;;;;;20.33;18.40;;;14.60;99.90;;;;;;4995827;28;20177;-66
2021/06/23 05:03:16;;;;;;;20.40;18.20;;;14.60;99.90;;;;;;5006687;28;20202;-65
2021/06/23 05:05:41;;;;;;;19.23;17.43;;;14.70;99.90;;;;;;5015371;28;20191;-66
2021/06/23 05:08:07;;;;;;;24.70;18.17;;;14.80;99.90;;;;;;5006671;28;20184;-65
2021/06/23 05:10:34;;;;;;;19.70;17.43;;;14.80;99.90;;;;;;4995823;28;20248;-65
2021/06/23 05:13:00;;;;;;;19.13;17.10;;;15.00;99.90;;;;;;5003123;28;20692;-66
2021/06/23 05:15:26;;;;;;;20.30;18.20;;;15.20;99.90;;;;;;5015788;28;20188;-66
2021/06/23 05:17:52;;;;;;;20.53;16.23;;;15.40;99.90;;;;;;4998751;28;20250;-66
2021/06/23 05:20:20;;;;;;;20.90;15.93;;;15.60;99.90;;;;;;4995596;28;20169;-65
2021/06/23 05:22:50;;;;;;;18.90;16.80;;;15.80;99.90;;;;;;5010330;28;20183;-66
2021/06/23 05:25:18;;;;;;;18.97;16.37;;;15.80;99.90;;;;;;5015133;28;20196;-65
2021/06/23 05:27:44;;;;;;;19.30;17.30;;;15.90;99.90;;;;;;5000972;28;20181;-66
2021/06/23 05:30:10;;;;;;;17.43;15.80;;;16.00;99.90;;;;;;4994966;28;20188;-65
2021/06/23 05:32:36;;;;;;;17.90;16.20;;;16.00;99.90;;;;;;4989775;28;20303;-65
2021/06/23 05:35:02;;;;;;;18.20;16.67;;;16.10;99.90;;;;;;5014802;28;20198;-64
2021/06/23 05:37:28;;;;;;;17.77;16.17;;;16.10;99.90;;;;;;5004249;28;20185;-65
2021/06/23 05:39:54;;;;;;;18.37;16.50;;;16.10;99.90;;;;;;4994814;28;20169;-65
2021/06/23 05:42:20;;;;;;;18.60;16.57;;;16.20;99.90;;;;;;5003390;28;20275;-65
2021/06/23 05:44:46;;;;;;;19.30;17.47;;;16.10;99.90;;;;;;5014808;28;20271;-64
2021/06/23 05:47:12;;;;;;;20.20;18.07;;;16.10;99.90;;;;;;5008132;28;20213;-66
2021/06/23 05:49:37;;;;;;;18.57;16.73;;;16.00;99.90;;;;;;4995306;28;20305;-66
2021/06/23 05:52:04;;;;;;;18.93;17.10;;;16.10;99.90;;;;;;4999527;28;20250;-65
2021/06/23 05:54:30;;;;;;;20.77;18.47;;;16.10;99.90;;;;;;5014508;28;20207;-65
2021/06/23 05:56:56;;;;;;;18.37;16.63;;;16.10;99.90;;;;;;5011265;28;20815;-66
2021/06/23 05:59:21;;;;;;;18.83;16.73;;;16.20;99.90;;;;;;4995189;28;20169;-65
2021/06/23 06:01:47;;;;;;;17.80;16.03;;;16.20;99.90;;;;;;4995440;28;20177;-66
2021/06/23 06:04:12;;;;;;;18.67;16.80;;;16.20;99.90;;;;;;5004767;28;20584;-66
2021/06/23 06:06:38;;;;;;;19.27;17.30;;;16.10;99.90;;;;;;4995684;28;20183;-66
2021/06/23 06:09:04;;;;;;;17.90;16.10;;;16.00;99.90;;;;;;4996533;28;20181;-66
2021/06/23 06:11:30;;;;;;;20.37;17.00;;;16.10;99.90;;;;;;5003789;28;20254;-66
2021/06/23 06:13:55;;;;;;;17.57;15.93;;;16.10;99.90;;;;;;5015003;28;20682;-66
2021/06/23 06:16:21;;;;;;;22.07;16.47;;;16.10;99.90;;;;;;5015007;28;20707;-65
2021/06/23 06:18:47;;;;;;;19.80;17.50;;;16.20;99.90;;;;;;5014287;28;20199;-65
2021/06/23 06:21:14;;;;;;;19.97;16.93;;;16.20;99.90;;;;;;5013246;28;20226;-66
2021/06/23 06:23:40;;;;;;;20.40;16.37;;;16.20;99.90;;;;;;5013799;28;20199;-66
2021/06/23 06:26:06;;;;;;;17.33;15.27;;;16.20;99.90;;;;;;5012070;28;20184;-66
2021/06/23 06:28:32;;;;;;;16.63;15.03;;;16.20;99.90;;;;;;5012954;28;20172;-66
2021/06/23 06:30:57;;;;;;;18.13;16.07;;;16.10;99.90;;;;;;5010231;28;20193;-65
2021/06/23 06:33:23;;;;;;;17.27;15.47;;;16.10;99.90;;;;;;4993885;28;20197;-65
2021/06/23 06:35:49;;;;;;;17.70;16.20;;;16.10;99.90;;;;;;4995615;28;20664;-66
2021/06/23 06:38:14;;;;;;;18.87;17.00;;;16.10;99.90;;;;;;4994132;28;20172;-65
2021/06/23 06:40:40;;;;;;;16.70;15.07;;;16.10;99.90;;;;;;4993085;28;20580;-66
2021/06/23 06:43:06;;;;;;;16.20;14.70;;;16.10;99.90;;;;;;5011609;28;20184;-66
2021/06/23 06:45:31;;;;;;;16.10;14.40;;;16.10;99.90;;;;;;5012775;28;20175;-64
2021/06/23 06:47:57;;;;;;;15.40;13.90;;;16.00;99.90;;;;;;5010792;28;20187;-66
2021/06/23 06:50:23;;;;;;;16.70;15.10;;;15.90;99.90;;;;;;5012806;28;20207;-66
2021/06/23 06:52:49;;;;;;;19.70;15.87;;;15.90;99.90;;;;;;4997382;28;20251;-66
2021/06/23 06:55:20;;;;;;;16.87;14.97;;;15.90;99.90;;;;;;4994020;28;20215;-66
2021/06/23 06:57:51;;;;;;;17.83;14.30;;;15.90;99.90;;;;;;4992888;28;20169;-65
2021/06/23 07:00:18;;;;;;;17.27;15.60;;;15.90;99.90;;;;;;4994311;28;20169;-66
2021/06/23 07:02:43;;;;;;;18.93;14.37;;;16.00;99.90;;;;;;5013255;28;20226;-66
2021/06/23 07:05:09;;;;;;;15.57;14.07;;;16.10;99.90;;;;;;5013372;28;20196;-66
2021/06/23 07:07:35;;;;;;;17.17;15.47;;;16.00;99.90;;;;;;5011818;28;20259;-66
2021/06/23 07:10:01;;;;;;;17.17;14.27;;;16.00;99.90;;;;;;5012032;28;20179;-66
2021/06/23 07:12:26;;;;;;;15.97;14.50;;;16.00;99.90;;;;;;4993849;28;20196;-66
2021/06/23 07:14:52;;;;;;;18.63;15.63;;;16.00;99.90;;;;;;4992517;28;20196;-64
2021/06/23 07:17:17;;;;;;;16.80;15.37;;;16.10;99.90;;;;;;5008784;28;20528;-66
2021/06/23 07:19:43;;;;;;;16.87;15.23;;;16.10;99.90;;;;;;5011789;28;20180;-67
2021/06/23 07:22:09;;;;;;;17.97;14.40;;;16.20;99.90;;;;;;4997234;28;20176;-65
2021/06/23 07:24:34;;;;;;;18.30;16.60;;;16.40;99.90;;;;;;4992835;28;20212;-66
2021/06/23 07:27:00;;;;;;;15.73;14.17;;;16.40;99.90;;;;;;5005284;28;20180;-66
2021/06/23 07:29:28;;;;;;;16.17;14.67;;;16.40;99.90;;;;;;5012111;28;20211;-66
2021/06/23 07:31:58;;;;;;;15.93;14.53;;;16.30;99.90;;;;;;4999922;28;20203;-66
2021/06/23 07:37:04;;;;;;;16.10;14.40;;;16.40;99.90;;;;;;5003588;28;20238;-66
2021/06/23 07:39:30;;;;;;;15.30;13.80;;;16.40;99.90;;;;;;5011700;28;20176;-66
2021/06/23 07:41:56;;;;;;;16.47;14.87;;;16.50;99.90;;;;;;5004466;28;20184;-66
2021/06/23 07:44:47;;;;;;;16.53;14.93;;;16.70;99.90;;;;;;4996169;28;20700;-66
2021/06/23 07:47:17;;;;;;;15.20;13.70;;;16.80;99.90;;;;;;5007352;28;20219;-66
2021/06/23 07:49:44;;;;;;;16.33;14.90;;;16.70;99.90;;;;;;5015490;28;20178;-65
2021/06/23 08:11:22;;;;;;;15.20;13.63;;;16.80;99.90;;;;;;4988482;28;20208;-66
2021/06/23 08:13:48;;;;;;;15.73;14.43;;;16.70;99.90;;;;;;4994883;28;20670;-65
2021/06/23 08:16:15;;;;;;;14.70;13.40;;;16.60;99.90;;;;;;4995623;28;20219;-65
2021/06/23 08:18:41;;;;;;;16.00;14.43;;;16.60;99.90;;;;;;4995229;28;20168;-66
2021/06/23 08:21:07;;;;;;;14.73;13.43;;;16.60;99.90;;;;;;4994774;28;20173;-66
2021/06/23 08:23:32;;;;;;;14.37;13.07;;;16.60;99.90;;;;;;4995496;28;20196;-66
2021/06/23 08:25:58;;;;;;;14.80;13.53;;;16.70;99.90;;;;;;4995473;28;20230;-66
2021/06/23 08:28:24;;;;;;;15.03;13.53;;;16.80;99.90;;;;;;4995450;28;20207;-65
2021/06/23 08:30:50;;;;;;;13.97;12.77;;;16.90;99.90;;;;;;4994946;28;20173;-66
2021/06/23 08:33:15;;;;;;;14.70;13.30;;;17.00;99.90;;;;;;4995243;28;20173;-66
2021/06/23 08:35:41;;;;;;;15.60;13.83;;;17.10;99.90;;;;;;4995224;28;20173;-67
2021/06/23 08:38:07;;;;;;;14.13;12.83;;;17.30;99.90;;;;;;4994973;28;20173;-66
2021/06/23 08:40:34;;;;;;;14.93;13.30;;;17.40;99.90;;;;;;4994760;28;20207;-66
2021/06/23 08:43:00;;;;;;;16.10;14.30;;;17.40;99.90;;;;;;4995296;28;20546;-66
2021/06/23 08:45:26;;;;;;;14.37;12.87;;;17.40;99.90;;;;;;4994924;28;20189;-66
2021/06/23 08:47:51;;;;;;;13.97;12.77;;;17.40;99.90;;;;;;4995004;28;20176;-66
2021/06/23 08:50:22;;;;;;;15.37;13.90;;;17.50;99.90;;;;;;4977202;28;20296;-66
2021/06/23 08:52:49;;;;;;;14.30;12.80;;;17.50;99.90;;;;;;4994186;28;20210;-66
2021/06/23 08:55:19;;;;;;;14.20;12.90;;;17.50;99.90;;;;;;4994827;28;20623;-65
2021/06/23 08:57:50;;;;;;;15.27;13.93;;;17.50;99.90;;;;;;4994789;28;20215;-64
2021/06/23 09:00:17;;;;;;;14.60;13.03;;;17.60;99.90;;;;;;4994350;28;20585;-64
2021/06/23 09:02:45;;;;;;;14.27;12.77;;;17.70;99.90;;;;;;4994645;28;20244;-65
2021/06/23 09:05:13;;;;;;;15.97;14.57;;;17.70;99.90;;;;;;4994549;28;20193;-64
2021/06/23 09:08:10;;;;;;;15.57;13.90;;;17.60;99.90;;;;;;4994207;28;20165;-64
2021/06/23 09:10:36;;;;;;;14.90;13.50;;;17.70;99.90;;;;;;4958724;28;20192;-65
2021/06/23 09:13:08;;;;;;;14.93;13.33;;;17.80;99.90;;;;;;4998721;28;20566;-64
2021/06/23 09:15:45;;;;;;;14.63;12.60;;;17.90;99.90;;;;;;5010552;28;20161;-66
2021/06/23 09:18:25;;;;;;;14.70;13.40;;;17.90;99.90;;;;;;4994316;28;20168;-65
2021/06/23 09:21:05;;;;;;;15.47;13.90;;;17.90;99.90;;;;;;4994007;28;20195;-64
2021/06/23 09:23:47;;;;;;;15.87;13.00;;;17.70;99.90;;;;;;4996390;28;20278;-65
2021/06/23 09:26:22;;;;;;;14.53;13.23;;;17.80;99.90;;;;;;4996036;28;20694;-64
2021/06/23 09:29:09;;;;;;;15.43;14.07;;;17.80;99.90;;;;;;5003175;28;20178;-65
2021/06/23 09:31:53;;;;;;;14.87;13.23;;;17.90;99.90;;;;;;5002148;28;20243;-65
2021/06/23 09:34:41;;;;;;;14.43;13.03;;;17.90;99.90;;;;;;5004860;28;20280;-65
2021/06/23 09:37:27;;;;;;;14.33;12.90;;;18.00;99.90;;;;;;4993040;28;20169;-65
2021/06/23 09:40:20;;;;;;;14.83;12.47;;;18.30;99.90;;;;;;4993695;28;20173;-65
2021/06/23 09:42:49;;;;;;;13.20;11.90;;;18.60;99.90;;;;;;4993893;28;20521;-64
2021/06/23 09:45:18;;;;;;;14.37;13.07;;;18.90;99.90;;;;;;4977570;28;20201;-64
2021/06/23 09:47:46;;;;;;;13.77;12.47;;;19.00;99.90;;;;;;4993850;28;20169;-64
2021/06/23 09:50:21;;;;;;;16.50;14.90;;;19.20;99.90;;;;;;4997978;28;20200;-67
2021/06/23 09:53:12;;;;;;;14.73;13.43;;;19.10;99.90;;;;;;4993569;28;20207;-65
2021/06/23 09:55:37;;;;;;;16.50;14.33;;;19.30;99.90;;;;;;4993694;28;20176;-64
2021/06/23 09:58:12;;;;;;;16.03;14.50;;;19.40;99.90;;;;;;4993548;28;20168;-64
2021/06/23 10:01:00;;;;;;;16.30;14.70;;;19.60;99.90;;;;;;5013173;28;20641;-64
2021/06/23 10:03:50;;;;;;;15.03;13.43;;;19.80;99.90;;;;;;5008897;28;20245;-65
2021/06/23 10:06:26;;;;;;;16.03;14.57;;;19.70;99.90;;;;;;4993461;28;20554;-65
2021/06/23 10:09:10;;;;;;;15.47;14.07;;;19.70;99.90;;;;;;4999055;28;20199;-64
2021/06/23 10:11:36;;;;;;;15.33;13.07;;;19.70;99.90;;;;;;5012468;28;20196;-65
2021/06/23 10:14:02;;;;;;;15.67;13.77;;;19.70;99.90;;;;;;5004607;28;20193;-65
2021/06/23 10:16:28;;;;;;;14.97;13.73;;;19.50;99.90;;;;;;4993272;28;20559;-65
2021/06/23 10:18:54;;;;;;;14.87;13.67;;;19.40;99.90;;;;;;4999442;28;20210;-64
2021/06/23 10:21:21;;;;;;;17.83;14.80;;;19.40;99.90;;;;;;5012542;28;20187;-64
2021/06/23 10:23:47;;;;;;;17.50;16.10;;;19.40;99.90;;;;;;5010978;28;20242;-64
2021/06/23 10:26:13;;;;;;;15.43;14.13;;;19.30;99.90;;;;;;5012609;28;20235;-64
2021/06/23 10:28:40;;;;;;;15.90;14.33;;;19.30;99.90;;;;;;5009254;28;20686;-67
2021/06/23 10:31:08;;;;;;;15.43;13.83;;;19.30;99.90;;;;;;4992929;28;20183;-66
2021/06/23 10:33:38;;;;;;;14.33;12.83;;;19.40;99.90;;;;;;4992972;28;20195;-66
2021/06/23 10:36:05;;;;;;;16.67;15.30;;;19.60;99.90;;;;;;4992592;28;20721;-65
2021/06/23 10:38:33;;;;;;;16.53;15.13;;;19.60;99.90;;;;;;4976862;28;20256;-66
2021/06/23 10:40:59;;;;;;;15.63;14.13;;;19.60;99.90;;;;;;5012121;28;20661;-67
2021/06/23 10:43:25;;;;;;;16.00;14.53;;;19.80;99.90;;;;;;5011813;28;20192;-66
2021/06/23 10:45:53;;;;;;;15.90;14.33;;;19.90;99.90;;;;;;5011347;28;20187;-66
2021/06/23 10:48:19;;;;;;;16.03;14.40;;;20.00;99.90;;;;;;5012198;28;20525;-67
2021/06/23 10:50:44;;;;;;;16.07;14.60;;;20.00;99.90;;;;;;4993053;28;20263;-67
2021/06/23 10:53:35;;;;;;;15.70;14.30;;;20.10;99.90;;;;;;5008309;28;20582;-65
2021/06/23 10:56:03;;;;;;;15.97;14.30;;;20.00;99.90;;;;;;5052548;22;20234;-67
2021/06/23 10:58:34;;;;;;;15.57;14.07;;;20.40;99.90;;;;;;5031470;28;20267;-67
2021/06/23 11:01:11;;;;;;;15.67;14.10;;;20.90;99.90;;;;;;5031391;28;20213;-68
2021/06/23 11:04:04;;;;;;;13.97;12.57;;;21.20;99.90;;;;;;5031828;28;20569;-66
2021/06/23 11:06:43;;;;;;;13.60;12.40;;;21.60;99.90;;;;;;5010893;28;20274;-66
2021/06/23 11:09:41;;;;;;;13.80;12.47;;;22.00;99.90;;;;;;5012054;28;20168;-67
2021/06/23 11:12:07;;;;;;;13.50;12.05;;;22.60;99.90;;;;;;4999471;28;20661;-67
2021/06/23 11:14:34;;;;;;;12.30;11.20;;;23.20;99.90;;;;;;5011487;28;20192;-66
2021/06/23 11:17:30;;;;;;;14.63;13.20;;;23.70;99.90;;;;;;5011919;28;20660;-67
2021/06/23 11:19:55;;;;;;;12.18;11.07;;;24.00;99.90;;;;;;5011776;28;20715;-67
2021/06/23 11:22:21;;;;;;;13.40;12.20;;;24.20;99.90;;;;;;5011470;28;20188;-67
2021/06/23 11:25:25;;;;;;;12.00;11.07;;;24.10;99.90;;;;;;5010556;28;20191;-67
2021/06/23 11:28:12;;;;;;;14.63;13.32;;;23.60;99.90;;;;;;4992310;28;20766;-67
2021/06/23 11:30:50;;;;;;;13.27;12.02;;;23.50;99.90;;;;;;4983719;28;21099;-67
2021/06/23 11:33:28;;;;;;;12.25;11.15;;;23.60;99.90;;;;;;5011738;28;20218;-67
2021/06/23 11:35:57;;;;;;;12.30;10.80;;;23.70;99.90;;;;;;5010883;28;20385;-65
2021/06/23 11:38:24;;;;;;;11.63;10.60;;;24.30;99.90;;;;;;5011512;28;20260;-67
2021/06/23 11:40:51;;;;;;;12.60;11.30;;;24.50;99.90;;;;;;5009884;28;20195;-67
2021/06/23 11:43:16;;;;;;;13.68;12.23;;;24.60;99.90;;;;;;5011787;28;20183;-67
2021/06/23 11:45:42;;;;;;;14.23;12.35;;;24.70;99.90;;;;;;5011419;28;20561;-67
2021/06/23 11:48:08;;;;;;;14.40;12.07;;;24.30;99.90;;;;;;5011609;28;20646;-66
2021/06/23 11:50:34;;;;;;;13.07;11.73;;;24.30;99.90;;;;;;5011176;28;20246;-67
2021/06/23 11:53:00;;;;;;;12.57;11.48;;;24.00;99.90;;;;;;5011437;28;20667;-67
2021/06/23 11:55:26;;;;;;;16.27;11.93;;;23.50;99.90;;;;;;5011468;28;20208;-67
2021/06/23 11:57:54;;;;;;;12.68;11.40;;;23.50;99.90;;;;;;5011387;28;20183;-67
2021/06/23 12:00:21;;;;;;;13.50;12.10;;;23.90;99.90;;;;;;5011341;28;20255;-67
2021/06/23 12:02:47;;;;;;;13.73;12.32;;;24.00;99.90;;;;;;5009908;28;20646;-67
2021/06/23 12:05:12;;;;;;;13.48;12.18;;;23.90;99.90;;;;;;5011471;28;20198;-67
2021/06/23 12:07:38;;;;;;;14.43;12.93;;;23.80;99.90;;;;;;5011266;28;20203;-66
2021/06/23 12:10:06;;;;;;;13.75;12.60;;;23.50;99.90;;;;;;5009714;28;20654;-67
2021/06/23 12:12:31;;;;;;;12.10;11.15;;;23.20;99.90;;;;;;5011402;28;20211;-68
2021/06/23 12:14:57;;;;;;;13.02;10.75;;;23.70;99.90;;;;;;5011248;28;20571;-67
2021/06/23 12:17:23;;;;;;;13.35;11.60;;;24.30;99.90;;;;;;5011480;28;20595;-67
2021/06/23 12:19:52;;;;;;;11.43;10.38;;;24.40;99.90;;;;;;5010739;28;20184;-67
2021/06/23 12:22:24;;;;;;;12.02;10.82;;;24.90;99.90;;;;;;5011284;28;20173;-67
2021/06/23 12:24:50;;;;;;;11.13;10.18;;;25.50;99.90;;;;;;5011060;28;20204;-67
2021/06/23 12:27:16;;;;;;;11.63;10.73;;;25.60;99.90;;;;;;5012668;28;20188;-67
2021/06/23 12:29:41;;;;;;;12.30;11.02;;;25.50;99.90;;;;;;5014505;28;20177;-67
2021/06/23 12:32:07;;;;;;;10.88;9.98;;;24.90;99.90;;;;;;5014724;28;20208;-67
2021/06/23 12:34:33;;;;;;;11.60;10.10;;;24.50;99.90;;;;;;5013828;28;20196;-67
2021/06/23 12:36:59;;;;;;;11.70;10.60;;;24.00;99.90;;;;;;5014710;28;20238;-66
2021/06/23 12:39:25;;;;;;;11.57;10.48;;;23.80;99.90;;;;;;5013273;28;20204;-66
2021/06/23 12:41:51;;;;;;;12.57;11.33;;;23.00;99.90;;;;;;5014486;28;20204;-66
2021/06/23 12:44:17;;;;;;;14.65;11.55;;;22.60;99.90;;;;;;5014421;28;20815;-68
2021/06/23 12:46:43;;;;;;;13.90;12.43;;;22.50;99.90;;;;;;5014606;28;20719;-66
2021/06/23 12:49:11;;;;;;;12.33;11.17;;;22.40;99.90;;;;;;5013504;28;20180;-67
2021/06/23 12:51:37;;;;;;;12.10;10.85;;;22.40;99.90;;;;;;5014050;28;20203;-67
2021/06/23 12:54:03;;;;;;;15.43;13.70;;;22.50;99.90;;;;;;5014205;28;20176;-67
2021/06/23 12:56:28;;;;;;;13.18;11.77;;;22.60;99.90;;;;;;5014494;28;20176;-66